sensor_id;sensor_type;location;lat;lon;timestamp;temperature;humidity
4840;DHT22;2434;48.486;7.964;2022-12-18T00:00:08;-4.20;79.60
4840;DHT22;2434;48.486;7.964;2022-12-18T00:02:45;-4.10;79.90
4840;DHT22;2434;48.486;7.964;2022-12-18T00:05:13;-4.00;78.80
4840;DHT22;2434;48.486;7.964;2022-12-18T00:07:41;-4.00;78.30
4840;DHT22;2434;48.486;7.964;2022-12-18T00:10:09;-4.20;80.10
4840;DHT22;2434;48.486;7.964;2022-12-18T00:12:42;-4.90;81.60
4840;DHT22;2434;48.486;7.964;2022-12-18T00:15:11;-4.70;84.20
4840;DHT22;2434;48.486;7.964;2022-12-18T00:17:39;-4.40;83.50
4840;DHT22;2434;48.486;7.964;2022-12-18T00:20:08;-4.30;82.10
4840;DHT22;2434;48.486;7.964;2022-12-18T00:22:37;-4.10;81.30
4840;DHT22;2434;48.486;7.964;2022-12-18T00:25:05;-4.10;81.00
4840;DHT22;2434;48.486;7.964;2022-12-18T00:27:33;-4.10;79.70
4840;DHT22;2434;48.486;7.964;2022-12-18T00:30:04;-4.10;79.00
4840;DHT22;2434;48.486;7.964;2022-12-18T00:32:32;-4.30;80.10
4840;DHT22;2434;48.486;7.964;2022-12-18T00:35:01;-4.20;80.60
4840;DHT22;2434;48.486;7.964;2022-12-18T00:37:30;-4.10;81.00
4840;DHT22;2434;48.486;7.964;2022-12-18T00:39:58;-4.00;80.30
4840;DHT22;2434;48.486;7.964;2022-12-18T00:42:28;-4.00;79.20
4840;DHT22;2434;48.486;7.964;2022-12-18T00:45:15;-4.00;78.90
4840;DHT22;2434;48.486;7.964;2022-12-18T00:47:43;-3.90;78.90
4840;DHT22;2434;48.486;7.964;2022-12-18T00:50:11;-3.80;78.30
4840;DHT22;2434;48.486;7.964;2022-12-18T00:52:40;-3.90;77.50
4840;DHT22;2434;48.486;7.964;2022-12-18T00:55:09;-3.80;77.40
4840;DHT22;2434;48.486;7.964;2022-12-18T00:57:38;-3.90;77.00
4840;DHT22;2434;48.486;7.964;2022-12-18T01:00:10;-3.90;76.50
4840;DHT22;2434;48.486;7.964;2022-12-18T01:02:40;-4.00;76.20
4840;DHT22;2434;48.486;7.964;2022-12-18T01:05:10;-4.70;77.60
4840;DHT22;2434;48.486;7.964;2022-12-18T01:07:39;-4.40;79.80
4840;DHT22;2434;48.486;7.964;2022-12-18T01:10:09;-4.30;79.50
4840;DHT22;2434;48.486;7.964;2022-12-18T01:12:39;-4.20;78.20
4840;DHT22;2434;48.486;7.964;2022-12-18T01:15:09;-4.10;77.20
4840;DHT22;2434;48.486;7.964;2022-12-18T01:17:39;-4.20;77.30
4840;DHT22;2434;48.486;7.964;2022-12-18T01:20:09;-4.30;77.30
4840;DHT22;2434;48.486;7.964;2022-12-18T01:22:37;-4.10;77.80
4840;DHT22;2434;48.486;7.964;2022-12-18T01:25:07;-4.00;76.60
4840;DHT22;2434;48.486;7.964;2022-12-18T01:27:35;-4.00;75.70
4840;DHT22;2434;48.486;7.964;2022-12-18T01:30:04;-4.00;75.00
4840;DHT22;2434;48.486;7.964;2022-12-18T01:32:33;-4.00;74.30
4840;DHT22;2434;48.486;7.964;2022-12-18T01:35:03;-4.10;73.90
4840;DHT22;2434;48.486;7.964;2022-12-18T01:37:32;-4.20;73.90
4840;DHT22;2434;48.486;7.964;2022-12-18T01:40:00;-4.20;73.80
4840;DHT22;2434;48.486;7.964;2022-12-18T01:42:29;-4.30;73.90
4840;DHT22;2434;48.486;7.964;2022-12-18T01:45:00;-4.30;74.20
4840;DHT22;2434;48.486;7.964;2022-12-18T01:47:40;-4.30;74.40
4840;DHT22;2434;48.486;7.964;2022-12-18T01:50:15;-4.30;74.70
4840;DHT22;2434;48.486;7.964;2022-12-18T01:52:47;-4.30;75.00
4840;DHT22;2434;48.486;7.964;2022-12-18T01:55:18;-4.30;74.90
4840;DHT22;2434;48.486;7.964;2022-12-18T01:57:48;-4.40;74.60
4840;DHT22;2434;48.486;7.964;2022-12-18T02:00:19;-4.30;74.90
4840;DHT22;2434;48.486;7.964;2022-12-18T02:02:50;-4.40;74.80
4840;DHT22;2434;48.486;7.964;2022-12-18T02:05:26;-4.40;75.10
4840;DHT22;2434;48.486;7.964;2022-12-18T02:08:10;-4.40;75.70
4840;DHT22;2434;48.486;7.964;2022-12-18T02:10:45;-4.30;75.90
4840;DHT22;2434;48.486;7.964;2022-12-18T02:13:20;-4.30;76.10
4840;DHT22;2434;48.486;7.964;2022-12-18T02:15:56;-4.30;76.60
4840;DHT22;2434;48.486;7.964;2022-12-18T02:18:30;-4.20;76.70
4840;DHT22;2434;48.486;7.964;2022-12-18T02:21:08;-4.20;76.80
4840;DHT22;2434;48.486;7.964;2022-12-18T02:23:47;-4.30;76.10
4840;DHT22;2434;48.486;7.964;2022-12-18T02:26:23;-4.20;76.60
4840;DHT22;2434;48.486;7.964;2022-12-18T02:28:59;-4.20;76.80
4840;DHT22;2434;48.486;7.964;2022-12-18T02:31:36;-4.10;77.40
4840;DHT22;2434;48.486;7.964;2022-12-18T02:34:08;-4.10;76.70
4840;DHT22;2434;48.486;7.964;2022-12-18T02:36:40;-4.10;77.00
4840;DHT22;2434;48.486;7.964;2022-12-18T02:39:11;-4.10;77.80
4840;DHT22;2434;48.486;7.964;2022-12-18T02:41:50;-4.00;77.00
4840;DHT22;2434;48.486;7.964;2022-12-18T02:44:22;-4.00;77.30
4840;DHT22;2434;48.486;7.964;2022-12-18T02:46:52;-3.90;76.20
4840;DHT22;2434;48.486;7.964;2022-12-18T02:49:29;-4.00;75.80
4840;DHT22;2434;48.486;7.964;2022-12-18T02:52:07;-4.10;76.60
4840;DHT22;2434;48.486;7.964;2022-12-18T02:54:49;-4.10;76.20
4840;DHT22;2434;48.486;7.964;2022-12-18T02:57:27;-4.10;76.80
4840;DHT22;2434;48.486;7.964;2022-12-18T03:00:07;-4.20;75.80
4840;DHT22;2434;48.486;7.964;2022-12-18T03:02:40;-4.20;75.90
4840;DHT22;2434;48.486;7.964;2022-12-18T03:05:16;-4.20;76.00
4840;DHT22;2434;48.486;7.964;2022-12-18T03:07:49;-4.30;75.70
4840;DHT22;2434;48.486;7.964;2022-12-18T03:10:25;-4.30;76.90
4840;DHT22;2434;48.486;7.964;2022-12-18T03:13:01;-4.30;75.90
4840;DHT22;2434;48.486;7.964;2022-12-18T03:15:35;-4.30;76.00
4840;DHT22;2434;48.486;7.964;2022-12-18T03:18:11;-4.30;76.00
4840;DHT22;2434;48.486;7.964;2022-12-18T03:20:42;-4.30;76.10
4840;DHT22;2434;48.486;7.964;2022-12-18T03:23:17;-4.30;76.30
4840;DHT22;2434;48.486;7.964;2022-12-18T03:25:54;-4.30;76.30
4840;DHT22;2434;48.486;7.964;2022-12-18T03:28:33;-4.30;76.60
4840;DHT22;2434;48.486;7.964;2022-12-18T03:31:05;-4.30;76.70
4840;DHT22;2434;48.486;7.964;2022-12-18T03:33:39;-4.30;77.00
4840;DHT22;2434;48.486;7.964;2022-12-18T03:36:10;-4.30;76.50
4840;DHT22;2434;48.486;7.964;2022-12-18T03:38:38;-4.30;76.20
4840;DHT22;2434;48.486;7.964;2022-12-18T03:41:16;-4.30;75.70
4840;DHT22;2434;48.486;7.964;2022-12-18T03:44:11;-4.20;76.60
4840;DHT22;2434;48.486;7.964;2022-12-18T03:46:49;-4.20;75.50
4840;DHT22;2434;48.486;7.964;2022-12-18T03:49:25;-4.30;75.20
4840;DHT22;2434;48.486;7.964;2022-12-18T03:52:01;-4.30;75.00
4840;DHT22;2434;48.486;7.964;2022-12-18T03:54:31;-4.30;75.00
4840;DHT22;2434;48.486;7.964;2022-12-18T03:57:13;-4.40;74.80
4840;DHT22;2434;48.486;7.964;2022-12-18T03:59:44;-4.40;75.00
4840;DHT22;2434;48.486;7.964;2022-12-18T04:02:17;-4.40;75.00
4840;DHT22;2434;48.486;7.964;2022-12-18T04:04:47;-4.40;74.80
4840;DHT22;2434;48.486;7.964;2022-12-18T04:07:18;-4.40;75.20
4840;DHT22;2434;48.486;7.964;2022-12-18T04:09:48;-4.40;75.50
4840;DHT22;2434;48.486;7.964;2022-12-18T04:12:18;-4.40;75.90
4840;DHT22;2434;48.486;7.964;2022-12-18T04:14:49;-4.30;76.40
4840;DHT22;2434;48.486;7.964;2022-12-18T04:17:17;-4.30;75.90
4840;DHT22;2434;48.486;7.964;2022-12-18T04:19:46;-4.30;75.70
4840;DHT22;2434;48.486;7.964;2022-12-18T04:22:15;-4.20;75.90
4840;DHT22;2434;48.486;7.964;2022-12-18T04:24:47;-4.20;75.30
4840;DHT22;2434;48.486;7.964;2022-12-18T04:27:24;-4.20;74.40
4840;DHT22;2434;48.486;7.964;2022-12-18T04:29:53;-4.20;74.60
4840;DHT22;2434;48.486;7.964;2022-12-18T04:32:21;-4.20;74.30
4840;DHT22;2434;48.486;7.964;2022-12-18T04:34:50;-4.20;73.90
4840;DHT22;2434;48.486;7.964;2022-12-18T04:37:19;-4.20;73.70
4840;DHT22;2434;48.486;7.964;2022-12-18T04:39:49;-4.30;74.00
4840;DHT22;2434;48.486;7.964;2022-12-18T04:42:25;-4.30;74.40
4840;DHT22;2434;48.486;7.964;2022-12-18T04:44:54;-4.30;73.60
4840;DHT22;2434;48.486;7.964;2022-12-18T04:47:22;-4.30;73.60
4840;DHT22;2434;48.486;7.964;2022-12-18T04:49:51;-4.40;73.60
4840;DHT22;2434;48.486;7.964;2022-12-18T04:52:19;-4.40;74.20
4840;DHT22;2434;48.486;7.964;2022-12-18T04:54:49;-4.40;73.70
4840;DHT22;2434;48.486;7.964;2022-12-18T04:57:18;-4.50;73.60
4840;DHT22;2434;48.486;7.964;2022-12-18T04:59:46;-4.60;73.70
4840;DHT22;2434;48.486;7.964;2022-12-18T05:02:16;-4.60;73.90
4840;DHT22;2434;48.486;7.964;2022-12-18T05:04:44;-4.60;73.80
4840;DHT22;2434;48.486;7.964;2022-12-18T05:07:13;-4.60;73.90
4840;DHT22;2434;48.486;7.964;2022-12-18T05:09:41;-4.70;74.00
4840;DHT22;2434;48.486;7.964;2022-12-18T05:12:09;-4.70;74.30
4840;DHT22;2434;48.486;7.964;2022-12-18T05:14:37;-4.80;74.60
4840;DHT22;2434;48.486;7.964;2022-12-18T05:17:05;-4.70;75.60
4840;DHT22;2434;48.486;7.964;2022-12-18T05:19:38;-4.70;75.40
4840;DHT22;2434;48.486;7.964;2022-12-18T05:22:09;-4.70;74.40
4840;DHT22;2434;48.486;7.964;2022-12-18T05:24:38;-4.70;74.10
4840;DHT22;2434;48.486;7.964;2022-12-18T05:27:06;-4.70;74.10
4840;DHT22;2434;48.486;7.964;2022-12-18T05:29:34;-4.80;73.90
4840;DHT22;2434;48.486;7.964;2022-12-18T05:32:02;-4.80;73.90
4840;DHT22;2434;48.486;7.964;2022-12-18T05:34:31;-4.80;73.90
4840;DHT22;2434;48.486;7.964;2022-12-18T05:37:01;-5.00;76.40
4840;DHT22;2434;48.486;7.964;2022-12-18T05:39:30;-4.90;76.20
4840;DHT22;2434;48.486;7.964;2022-12-18T05:41:58;-4.90;76.70
4840;DHT22;2434;48.486;7.964;2022-12-18T05:44:26;-4.80;75.80
4840;DHT22;2434;48.486;7.964;2022-12-18T05:46:54;-4.70;75.70
4840;DHT22;2434;48.486;7.964;2022-12-18T05:49:22;-4.90;73.80
4840;DHT22;2434;48.486;7.964;2022-12-18T05:51:51;-5.20;76.70
4840;DHT22;2434;48.486;7.964;2022-12-18T05:54:21;-5.00;76.70
4840;DHT22;2434;48.486;7.964;2022-12-18T05:56:49;-4.80;75.50
4840;DHT22;2434;48.486;7.964;2022-12-18T05:59:17;-4.80;75.20
4840;DHT22;2434;48.486;7.964;2022-12-18T06:01:46;-5.70;74.80
4840;DHT22;2434;48.486;7.964;2022-12-18T06:04:14;-6.30;79.10
4840;DHT22;2434;48.486;7.964;2022-12-18T06:06:42;-5.90;82.60
4840;DHT22;2434;48.486;7.964;2022-12-18T06:09:10;-5.50;81.50
4840;DHT22;2434;48.486;7.964;2022-12-18T06:11:40;-5.30;79.20
4840;DHT22;2434;48.486;7.964;2022-12-18T06:14:09;-5.20;78.00
4840;DHT22;2434;48.486;7.964;2022-12-18T06:16:37;-5.40;77.00
4840;DHT22;2434;48.486;7.964;2022-12-18T06:19:05;-5.10;77.30
4840;DHT22;2434;48.486;7.964;2022-12-18T06:21:34;-5.60;75.30
4840;DHT22;2434;48.486;7.964;2022-12-18T06:24:02;-5.80;77.50
4840;DHT22;2434;48.486;7.964;2022-12-18T06:26:30;-5.50;79.50
4840;DHT22;2434;48.486;7.964;2022-12-18T06:29:00;-5.40;76.90
4840;DHT22;2434;48.486;7.964;2022-12-18T06:31:28;-5.30;78.20
4840;DHT22;2434;48.486;7.964;2022-12-18T06:33:57;-5.10;77.30
4840;DHT22;2434;48.486;7.964;2022-12-18T06:36:25;-5.00;76.20
4840;DHT22;2434;48.486;7.964;2022-12-18T06:38:56;-4.90;75.60
4840;DHT22;2434;48.486;7.964;2022-12-18T06:41:25;-4.80;75.10
4840;DHT22;2434;48.486;7.964;2022-12-18T06:43:53;-4.70;75.20
4840;DHT22;2434;48.486;7.964;2022-12-18T06:46:27;-4.70;73.80
4840;DHT22;2434;48.486;7.964;2022-12-18T06:48:55;-4.70;73.20
4840;DHT22;2434;48.486;7.964;2022-12-18T06:51:24;-4.80;73.60
4840;DHT22;2434;48.486;7.964;2022-12-18T06:53:52;-4.70;73.90
4840;DHT22;2434;48.486;7.964;2022-12-18T06:56:20;-4.70;73.20
4840;DHT22;2434;48.486;7.964;2022-12-18T06:58:52;-4.70;72.90
4840;DHT22;2434;48.486;7.964;2022-12-18T07:01:20;-4.70;72.80
4840;DHT22;2434;48.486;7.964;2022-12-18T07:03:53;-4.70;72.60
4840;DHT22;2434;48.486;7.964;2022-12-18T07:06:22;-4.70;72.90
4840;DHT22;2434;48.486;7.964;2022-12-18T07:08:52;-4.70;72.60
4840;DHT22;2434;48.486;7.964;2022-12-18T07:11:21;-4.80;72.10
4840;DHT22;2434;48.486;7.964;2022-12-18T07:13:50;-4.80;72.10
4840;DHT22;2434;48.486;7.964;2022-12-18T07:16:19;-4.90;72.20
4840;DHT22;2434;48.486;7.964;2022-12-18T07:18:54;-4.90;72.40
4840;DHT22;2434;48.486;7.964;2022-12-18T07:21:23;-4.90;72.50
4840;DHT22;2434;48.486;7.964;2022-12-18T07:23:52;-4.90;72.80
4840;DHT22;2434;48.486;7.964;2022-12-18T07:26:21;-4.80;72.80
4840;DHT22;2434;48.486;7.964;2022-12-18T07:28:49;-4.80;72.40
4840;DHT22;2434;48.486;7.964;2022-12-18T07:31:20;-4.90;72.40
4840;DHT22;2434;48.486;7.964;2022-12-18T07:33:50;-4.90;72.10
4840;DHT22;2434;48.486;7.964;2022-12-18T07:36:27;-4.90;73.00
4840;DHT22;2434;48.486;7.964;2022-12-18T07:38:56;-4.90;72.60
4840;DHT22;2434;48.486;7.964;2022-12-18T07:41:24;-4.80;72.50
4840;DHT22;2434;48.486;7.964;2022-12-18T07:43:52;-4.80;72.60
4840;DHT22;2434;48.486;7.964;2022-12-18T07:46:20;-4.80;72.60
4840;DHT22;2434;48.486;7.964;2022-12-18T07:48:49;-5.00;73.00
4840;DHT22;2434;48.486;7.964;2022-12-18T07:51:17;-5.00;74.10
4840;DHT22;2434;48.486;7.964;2022-12-18T07:53:47;-4.90;74.40
4840;DHT22;2434;48.486;7.964;2022-12-18T07:56:19;-4.80;73.30
4840;DHT22;2434;48.486;7.964;2022-12-18T07:58:55;-4.80;73.90
4840;DHT22;2434;48.486;7.964;2022-12-18T08:01:23;-4.70;72.80
4840;DHT22;2434;48.486;7.964;2022-12-18T08:03:52;-4.70;72.80
4840;DHT22;2434;48.486;7.964;2022-12-18T08:06:20;-4.70;72.00
4840;DHT22;2434;48.486;7.964;2022-12-18T08:08:52;-4.70;71.90
4840;DHT22;2434;48.486;7.964;2022-12-18T08:11:21;-4.70;72.20
4840;DHT22;2434;48.486;7.964;2022-12-18T08:13:50;-4.70;72.90
4840;DHT22;2434;48.486;7.964;2022-12-18T08:16:19;-4.70;72.00
4840;DHT22;2434;48.486;7.964;2022-12-18T08:18:48;-4.70;71.60
4840;DHT22;2434;48.486;7.964;2022-12-18T08:21:18;-4.70;71.70
4840;DHT22;2434;48.486;7.964;2022-12-18T08:23:48;-4.60;71.70
4840;DHT22;2434;48.486;7.964;2022-12-18T08:26:19;-4.70;71.10
4840;DHT22;2434;48.486;7.964;2022-12-18T08:28:49;-4.70;71.00
4840;DHT22;2434;48.486;7.964;2022-12-18T08:31:18;-4.80;71.10
4840;DHT22;2434;48.486;7.964;2022-12-18T08:33:48;-4.80;71.20
4840;DHT22;2434;48.486;7.964;2022-12-18T08:36:17;-4.80;72.60
4840;DHT22;2434;48.486;7.964;2022-12-18T08:38:45;-4.80;71.60
4840;DHT22;2434;48.486;7.964;2022-12-18T08:41:15;-4.80;72.00
4840;DHT22;2434;48.486;7.964;2022-12-18T08:43:45;-4.80;72.10
4840;DHT22;2434;48.486;7.964;2022-12-18T08:46:35;-4.80;72.50
4840;DHT22;2434;48.486;7.964;2022-12-18T08:49:05;-4.90;72.50
4840;DHT22;2434;48.486;7.964;2022-12-18T08:51:34;-4.80;71.60
4840;DHT22;2434;48.486;7.964;2022-12-18T08:54:03;-6.30;74.30
4840;DHT22;2434;48.486;7.964;2022-12-18T08:56:32;-6.60;80.10
4840;DHT22;2434;48.486;7.964;2022-12-18T08:59:02;-6.70;81.20
4840;DHT22;2434;48.486;7.964;2022-12-18T09:01:31;-6.40;82.80
4840;DHT22;2434;48.486;7.964;2022-12-18T09:04:01;-5.90;82.70
4840;DHT22;2434;48.486;7.964;2022-12-18T09:06:30;-5.60;80.30
4840;DHT22;2434;48.486;7.964;2022-12-18T09:08:58;-5.40;78.00
4840;DHT22;2434;48.486;7.964;2022-12-18T09:11:28;-5.30;76.50
4840;DHT22;2434;48.486;7.964;2022-12-18T09:13:57;-5.20;75.30
4840;DHT22;2434;48.486;7.964;2022-12-18T09:16:29;-5.10;75.80
4840;DHT22;2434;48.486;7.964;2022-12-18T09:18:59;-5.00;74.10
4840;DHT22;2434;48.486;7.964;2022-12-18T09:21:29;-4.90;73.40
4840;DHT22;2434;48.486;7.964;2022-12-18T09:24:04;-4.90;73.00
4840;DHT22;2434;48.486;7.964;2022-12-18T09:26:35;-4.90;73.00
4840;DHT22;2434;48.486;7.964;2022-12-18T09:29:03;-4.90;73.70
4840;DHT22;2434;48.486;7.964;2022-12-18T09:31:36;-4.90;73.30
4840;DHT22;2434;48.486;7.964;2022-12-18T09:34:04;-4.80;73.40
4840;DHT22;2434;48.486;7.964;2022-12-18T09:36:33;-5.00;73.80
4840;DHT22;2434;48.486;7.964;2022-12-18T09:39:02;-4.90;73.80
4840;DHT22;2434;48.486;7.964;2022-12-18T09:41:46;-4.80;73.20
4840;DHT22;2434;48.486;7.964;2022-12-18T09:44:22;-4.80;72.40
4840;DHT22;2434;48.486;7.964;2022-12-18T09:49:43;-4.90;73.70
4840;DHT22;2434;48.486;7.964;2022-12-18T09:52:17;-5.10;72.80
4840;DHT22;2434;48.486;7.964;2022-12-18T09:54:51;-5.10;73.90
4840;DHT22;2434;48.486;7.964;2022-12-18T09:57:22;-5.50;75.70
4840;DHT22;2434;48.486;7.964;2022-12-18T09:59:54;-5.60;76.80
4840;DHT22;2434;48.486;7.964;2022-12-18T10:02:25;-5.30;77.50
4840;DHT22;2434;48.486;7.964;2022-12-18T10:05:04;-5.80;76.10
4840;DHT22;2434;48.486;7.964;2022-12-18T10:07:41;-6.30;80.90
4840;DHT22;2434;48.486;7.964;2022-12-18T10:10:23;-5.80;83.10
4840;DHT22;2434;48.486;7.964;2022-12-18T10:12:56;-5.50;81.50
4840;DHT22;2434;48.486;7.964;2022-12-18T10:15:36;-5.20;79.50
4840;DHT22;2434;48.486;7.964;2022-12-18T10:18:19;-5.00;78.70
4840;DHT22;2434;48.486;7.964;2022-12-18T10:20:52;-5.00;76.70
4840;DHT22;2434;48.486;7.964;2022-12-18T10:23:25;-4.90;76.10
4840;DHT22;2434;48.486;7.964;2022-12-18T10:26:01;-4.80;75.60
4840;DHT22;2434;48.486;7.964;2022-12-18T10:28:32;-4.80;75.20
4840;DHT22;2434;48.486;7.964;2022-12-18T10:31:05;-5.00;73.60
4840;DHT22;2434;48.486;7.964;2022-12-18T10:33:35;-5.30;76.80
4840;DHT22;2434;48.486;7.964;2022-12-18T10:36:04;-5.50;77.80
4840;DHT22;2434;48.486;7.964;2022-12-18T10:38:33;-6.10;78.60
4840;DHT22;2434;48.486;7.964;2022-12-18T10:41:03;-6.60;81.40
4840;DHT22;2434;48.486;7.964;2022-12-18T10:43:34;-6.70;83.90
4840;DHT22;2434;48.486;7.964;2022-12-18T10:46:12;-6.80;84.20
4840;DHT22;2434;48.486;7.964;2022-12-18T10:48:53;-6.70;85.50
4840;DHT22;2434;48.486;7.964;2022-12-18T10:51:24;-6.80;85.00
4840;DHT22;2434;48.486;7.964;2022-12-18T10:53:55;-6.80;86.70
4840;DHT22;2434;48.486;7.964;2022-12-18T10:56:27;-6.70;88.60
4840;DHT22;2434;48.486;7.964;2022-12-18T10:58:58;-6.70;88.20
4840;DHT22;2434;48.486;7.964;2022-12-18T11:01:26;-6.80;86.60
4840;DHT22;2434;48.486;7.964;2022-12-18T11:04:08;-6.90;87.30
4840;DHT22;2434;48.486;7.964;2022-12-18T11:06:53;-6.80;86.80
4840;DHT22;2434;48.486;7.964;2022-12-18T11:09:22;-6.60;87.00
4840;DHT22;2434;48.486;7.964;2022-12-18T11:11:52;-6.50;87.90
4840;DHT22;2434;48.486;7.964;2022-12-18T11:14:23;-6.40;88.10
4840;DHT22;2434;48.486;7.964;2022-12-18T11:16:53;-6.20;89.50
4840;DHT22;2434;48.486;7.964;2022-12-18T11:19:43;-6.60;86.00
4840;DHT22;2434;48.486;7.964;2022-12-18T11:22:20;-6.80;86.60
4840;DHT22;2434;48.486;7.964;2022-12-18T11:24:55;-6.80;86.90
4840;DHT22;2434;48.486;7.964;2022-12-18T11:27:48;-7.10;87.40
4840;DHT22;2434;48.486;7.964;2022-12-18T11:30:22;-7.10;87.10
4840;DHT22;2434;48.486;7.964;2022-12-18T11:32:54;-7.30;87.20
4840;DHT22;2434;48.486;7.964;2022-12-18T11:35:35;-7.20;87.90
4840;DHT22;2434;48.486;7.964;2022-12-18T11:38:13;-7.10;88.10
4840;DHT22;2434;48.486;7.964;2022-12-18T11:40:45;-7.10;88.20
4840;DHT22;2434;48.486;7.964;2022-12-18T11:43:19;-6.80;90.70
4840;DHT22;2434;48.486;7.964;2022-12-18T11:45:53;-6.90;88.60
4840;DHT22;2434;48.486;7.964;2022-12-18T11:48:23;-6.80;88.40
4840;DHT22;2434;48.486;7.964;2022-12-18T11:50:55;-6.90;88.40
4840;DHT22;2434;48.486;7.964;2022-12-18T11:53:24;-6.80;88.90
4840;DHT22;2434;48.486;7.964;2022-12-18T11:56:02;-6.80;88.90
4840;DHT22;2434;48.486;7.964;2022-12-18T11:58:47;-6.80;88.90
4840;DHT22;2434;48.486;7.964;2022-12-18T12:01:36;-6.70;88.60
4840;DHT22;2434;48.486;7.964;2022-12-18T12:07:38;-6.70;88.90
4840;DHT22;2434;48.486;7.964;2022-12-18T12:10:21;-6.60;90.10
4840;DHT22;2434;48.486;7.964;2022-12-18T12:13:01;-6.60;89.20
4840;DHT22;2434;48.486;7.964;2022-12-18T12:15:38;-6.60;89.60
4840;DHT22;2434;48.486;7.964;2022-12-18T12:18:19;-6.50;89.60
4840;DHT22;2434;48.486;7.964;2022-12-18T12:20:56;-6.30;90.00
4840;DHT22;2434;48.486;7.964;2022-12-18T12:23:36;-6.30;89.30
4840;DHT22;2434;48.486;7.964;2022-12-18T12:26:10;-6.30;89.60
4840;DHT22;2434;48.486;7.964;2022-12-18T12:29:00;-6.30;89.60
4840;DHT22;2434;48.486;7.964;2022-12-18T12:31:40;-6.30;90.10
4840;DHT22;2434;48.486;7.964;2022-12-18T12:34:17;-6.30;90.30
4840;DHT22;2434;48.486;7.964;2022-12-18T12:37:03;-6.20;90.90
4840;DHT22;2434;48.486;7.964;2022-12-18T12:39:38;-5.60;94.00
4840;DHT22;2434;48.486;7.964;2022-12-18T12:42:14;-4.00;97.30
4840;DHT22;2434;48.486;7.964;2022-12-18T12:45:05;-4.90;90.70
4840;DHT22;2434;48.486;7.964;2022-12-18T12:47:38;-5.50;86.90
4840;DHT22;2434;48.486;7.964;2022-12-18T12:50:14;-5.60;88.70
4840;DHT22;2434;48.486;7.964;2022-12-18T12:52:47;-5.50;89.30
4840;DHT22;2434;48.486;7.964;2022-12-18T12:55:21;-5.60;88.70
4840;DHT22;2434;48.486;7.964;2022-12-18T12:57:57;-5.70;89.00
4840;DHT22;2434;48.486;7.964;2022-12-18T13:00:33;-5.60;89.40
4840;DHT22;2434;48.486;7.964;2022-12-18T13:03:08;-5.80;89.20
4840;DHT22;2434;48.486;7.964;2022-12-18T13:05:43;-5.80;89.60
4840;DHT22;2434;48.486;7.964;2022-12-18T13:08:22;-5.80;89.90
4840;DHT22;2434;48.486;7.964;2022-12-18T13:10:54;-5.80;89.40
4840;DHT22;2434;48.486;7.964;2022-12-18T13:13:49;-5.90;89.70
4840;DHT22;2434;48.486;7.964;2022-12-18T13:16:19;-5.90;90.00
4840;DHT22;2434;48.486;7.964;2022-12-18T13:18:51;-5.80;90.10
4840;DHT22;2434;48.486;7.964;2022-12-18T13:21:24;-5.80;89.80
4840;DHT22;2434;48.486;7.964;2022-12-18T13:23:54;-5.80;89.80
4840;DHT22;2434;48.486;7.964;2022-12-18T13:26:32;-5.80;90.00
4840;DHT22;2434;48.486;7.964;2022-12-18T13:29:01;-5.60;90.10
4840;DHT22;2434;48.486;7.964;2022-12-18T13:32:10;-5.70;89.40
4840;DHT22;2434;48.486;7.964;2022-12-18T13:34:48;-5.60;89.40
4840;DHT22;2434;48.486;7.964;2022-12-18T13:37:42;-5.60;89.40
4840;DHT22;2434;48.486;7.964;2022-12-18T13:40:53;-5.60;88.90
4840;DHT22;2434;48.486;7.964;2022-12-18T13:43:33;-5.60;88.80
4840;DHT22;2434;48.486;7.964;2022-12-18T13:46:19;-5.60;88.90
4840;DHT22;2434;48.486;7.964;2022-12-18T13:48:55;-5.60;88.50
4840;DHT22;2434;48.486;7.964;2022-12-18T13:51:24;-5.70;88.60
4840;DHT22;2434;48.486;7.964;2022-12-18T13:53:55;-5.60;89.10
4840;DHT22;2434;48.486;7.964;2022-12-18T13:56:27;-5.40;89.70
4840;DHT22;2434;48.486;7.964;2022-12-18T13:59:15;-5.50;89.10
4840;DHT22;2434;48.486;7.964;2022-12-18T14:01:51;-5.60;88.30
4840;DHT22;2434;48.486;7.964;2022-12-18T14:04:23;-5.60;88.50
4840;DHT22;2434;48.486;7.964;2022-12-18T14:06:55;-5.60;88.70
4840;DHT22;2434;48.486;7.964;2022-12-18T14:09:27;-5.60;88.90
4840;DHT22;2434;48.486;7.964;2022-12-18T14:11:58;-5.60;88.70
4840;DHT22;2434;48.486;7.964;2022-12-18T14:14:47;-5.60;88.50
4840;DHT22;2434;48.486;7.964;2022-12-18T14:17:20;-5.60;89.30
4840;DHT22;2434;48.486;7.964;2022-12-18T14:19:51;-5.70;88.20
4840;DHT22;2434;48.486;7.964;2022-12-18T14:22:21;-5.70;88.40
4840;DHT22;2434;48.486;7.964;2022-12-18T14:25:10;-5.70;88.40
4840;DHT22;2434;48.486;7.964;2022-12-18T14:27:43;-5.80;88.50
4840;DHT22;2434;48.486;7.964;2022-12-18T14:30:29;-5.70;88.90
4840;DHT22;2434;48.486;7.964;2022-12-18T14:33:02;-5.80;88.30
4840;DHT22;2434;48.486;7.964;2022-12-18T14:35:32;-5.80;88.30
4840;DHT22;2434;48.486;7.964;2022-12-18T14:38:28;-5.80;88.20
4840;DHT22;2434;48.486;7.964;2022-12-18T14:40:59;-5.80;89.00
4840;DHT22;2434;48.486;7.964;2022-12-18T14:43:28;-5.80;88.50
4840;DHT22;2434;48.486;7.964;2022-12-18T14:45:58;-5.80;88.80
4840;DHT22;2434;48.486;7.964;2022-12-18T14:48:35;-5.80;88.80
4840;DHT22;2434;48.486;7.964;2022-12-18T14:51:06;-5.80;88.90
4840;DHT22;2434;48.486;7.964;2022-12-18T14:53:37;-5.80;88.70
4840;DHT22;2434;48.486;7.964;2022-12-18T14:56:15;-5.80;88.70
4840;DHT22;2434;48.486;7.964;2022-12-18T14:58:49;-5.70;88.50
4840;DHT22;2434;48.486;7.964;2022-12-18T15:01:21;-5.80;88.00
4840;DHT22;2434;48.486;7.964;2022-12-18T15:03:52;-5.70;88.10
4840;DHT22;2434;48.486;7.964;2022-12-18T15:06:30;-5.70;88.30
4840;DHT22;2434;48.486;7.964;2022-12-18T15:08:59;-5.70;87.60
4840;DHT22;2434;48.486;7.964;2022-12-18T15:11:32;-5.80;87.80
4840;DHT22;2434;48.486;7.964;2022-12-18T15:14:23;-5.70;88.10
4840;DHT22;2434;48.486;7.964;2022-12-18T15:16:54;-5.60;87.60
4840;DHT22;2434;48.486;7.964;2022-12-18T15:19:28;-5.40;87.70
4840;DHT22;2434;48.486;7.964;2022-12-18T15:22:00;-5.00;86.70
4840;DHT22;2434;48.486;7.964;2022-12-18T15:24:32;-4.70;84.10
4840;DHT22;2434;48.486;7.964;2022-12-18T15:27:01;-4.80;81.20
4840;DHT22;2434;48.486;7.964;2022-12-18T15:29:29;-5.00;82.20
4840;DHT22;2434;48.486;7.964;2022-12-18T15:32:01;-4.80;81.70
4840;DHT22;2434;48.486;7.964;2022-12-18T15:34:31;-5.10;81.50
4840;DHT22;2434;48.486;7.964;2022-12-18T15:37:00;-5.00;83.10
4840;DHT22;2434;48.486;7.964;2022-12-18T15:39:29;-5.00;81.90
4840;DHT22;2434;48.486;7.964;2022-12-18T15:41:57;-4.90;82.50
4840;DHT22;2434;48.486;7.964;2022-12-18T15:44:43;-4.50;81.40
4840;DHT22;2434;48.486;7.964;2022-12-18T15:47:13;-4.40;78.90
4840;DHT22;2434;48.486;7.964;2022-12-18T15:49:42;-4.30;78.40
4840;DHT22;2434;48.486;7.964;2022-12-18T15:52:12;-4.20;77.10
4840;DHT22;2434;48.486;7.964;2022-12-18T15:54:53;-4.40;76.30
4840;DHT22;2434;48.486;7.964;2022-12-18T15:57:38;-4.70;78.80
4840;DHT22;2434;48.486;7.964;2022-12-18T16:00:12;-4.80;78.80
4840;DHT22;2434;48.486;7.964;2022-12-18T16:02:41;-4.80;80.50
4840;DHT22;2434;48.486;7.964;2022-12-18T16:05:14;-4.70;80.20
4840;DHT22;2434;48.486;7.964;2022-12-18T16:07:44;-4.80;80.10
4840;DHT22;2434;48.486;7.964;2022-12-18T16:10:13;-4.50;80.20
4840;DHT22;2434;48.486;7.964;2022-12-18T16:12:41;-4.20;78.50
4840;DHT22;2434;48.486;7.964;2022-12-18T16:15:12;-4.20;77.00
4840;DHT22;2434;48.486;7.964;2022-12-18T16:17:51;-4.20;77.60
4840;DHT22;2434;48.486;7.964;2022-12-18T16:20:21;-4.10;77.10
4840;DHT22;2434;48.486;7.964;2022-12-18T16:22:50;-4.00;76.70
4840;DHT22;2434;48.486;7.964;2022-12-18T16:25:22;-4.00;76.70
4840;DHT22;2434;48.486;7.964;2022-12-18T16:27:52;-4.30;75.90
4840;DHT22;2434;48.486;7.964;2022-12-18T16:30:23;-4.80;80.30
4840;DHT22;2434;48.486;7.964;2022-12-18T16:32:55;-5.00;82.40
4840;DHT22;2434;48.486;7.964;2022-12-18T16:35:25;-5.00;84.10
4840;DHT22;2434;48.486;7.964;2022-12-18T16:37:53;-4.80;84.60
4840;DHT22;2434;48.486;7.964;2022-12-18T16:40:22;-4.60;83.10
4840;DHT22;2434;48.486;7.964;2022-12-18T16:42:50;-4.50;82.30